createdAt,value
2022-09-28T00:02:01.276Z,1.67
2022-09-28T00:04:31.391Z,1.52
2022-09-28T00:07:00.509Z,1.45
2022-09-28T00:09:30.790Z,1.55
2022-09-28T00:11:59.860Z,1.48
2022-09-28T00:14:28.904Z,1.70
2022-09-28T00:16:57.896Z,1.65
2022-09-28T00:19:27.030Z,1.33
2022-09-28T00:21:56.034Z,1.58
2022-09-28T00:24:27.647Z,1.60
2022-09-28T00:27:01.597Z,1.75
2022-09-28T00:29:33.243Z,1.75
2022-09-28T00:32:05.175Z,1.25
2022-09-28T00:34:37.838Z,1.40
2022-09-28T00:37:09.801Z,1.80
2022-09-28T00:39:41.283Z,1.40
2022-09-28T00:42:18.406Z,1.60
2022-09-28T00:44:51.674Z,1.38
2022-09-28T00:47:42.308Z,1.40
2022-09-28T00:50:23.095Z,1.38
2022-09-28T00:52:57.174Z,1.65
2022-09-28T00:55:35.765Z,1.38
2022-09-28T00:58:09.060Z,1.60
2022-09-28T01:00:40.559Z,1.80
2022-09-28T01:03:09.973Z,1.30
2022-09-28T01:05:41.638Z,1.27
2022-09-28T01:08:11.838Z,1.92
2022-09-28T01:10:43.737Z,1.40
2022-09-28T01:13:14.835Z,1.30
2022-09-28T01:15:52.778Z,1.30
2022-09-28T01:18:30.647Z,1.20
2022-09-28T01:21:05.268Z,1.20
2022-09-28T01:24:32.558Z,1.33
2022-09-28T01:27:11.970Z,1.90
2022-09-28T01:29:52.530Z,1.40
2022-09-28T01:32:33.635Z,1.30
2022-09-28T01:35:08.802Z,1.60
2022-09-28T01:37:47.279Z,1.38
2022-09-28T01:40:18.326Z,1.33
2022-09-28T01:42:56.039Z,1.60
2022-09-28T01:45:31.170Z,1.55
2022-09-28T01:48:06.314Z,1.45
2022-09-28T01:50:39.912Z,1.80
2022-09-28T01:53:14.973Z,1.70
2022-09-28T01:55:49.381Z,1.20
2022-09-28T01:58:26.595Z,1.90
2022-09-28T02:01:14.084Z,1.20
2022-09-28T02:03:50.059Z,1.30
2022-09-28T02:06:25.951Z,1.38
2022-09-28T02:09:00.319Z,1.55
2022-09-28T02:11:46.796Z,1.55
2022-09-28T02:14:19.667Z,1.75
2022-09-28T02:16:54.231Z,1.85
2022-09-28T02:19:30.663Z,1.60
2022-09-28T02:22:04.482Z,2.42
2022-09-28T02:24:40.865Z,1.70
2022-09-28T02:27:18.243Z,1.40
2022-09-28T02:29:49.793Z,1.77
2022-09-28T02:32:21.334Z,1.40
2022-09-28T02:34:50.561Z,1.55
2022-09-28T02:37:19.562Z,1.50
2022-09-28T02:39:48.494Z,1.95
2022-09-28T02:42:25.583Z,1.77
2022-09-28T02:45:10.082Z,1.50
2022-09-28T02:47:58.099Z,1.55
2022-09-28T02:50:39.665Z,1.80
2022-09-28T02:53:55.093Z,1.70
2022-09-28T02:56:44.078Z,2.10
2022-09-28T02:59:22.938Z,1.52
2022-09-28T03:02:03.237Z,1.73
2022-09-28T03:04:38.727Z,2.13
2022-09-28T03:07:22.152Z,2.30
2022-09-28T03:10:04.918Z,1.65
2022-09-28T03:12:34.830Z,1.63
2022-09-28T03:15:10.159Z,1.80
2022-09-28T03:17:41.523Z,1.80
2022-09-28T03:20:12.431Z,1.52
2022-09-28T03:22:41.737Z,1.73
2022-09-28T03:25:11.289Z,2.00
2022-09-28T03:27:41.798Z,2.00
2022-09-28T03:30:13.385Z,1.50
2022-09-28T03:32:48.418Z,1.92
2022-09-28T03:35:17.801Z,1.50
2022-09-28T03:37:46.758Z,1.55
2022-09-28T03:40:15.989Z,1.90
2022-09-28T03:42:45.121Z,1.95
2022-09-28T03:45:14.435Z,1.85
2022-09-28T03:47:48.594Z,1.70
2022-09-28T03:50:17.647Z,1.55
2022-09-28T03:52:46.659Z,1.40
2022-09-28T03:55:15.857Z,1.85
2022-09-28T03:57:45.116Z,1.60
2022-09-28T04:00:14.706Z,1.23
2022-09-28T04:02:43.767Z,1.30
2022-09-28T04:05:14.653Z,1.65
2022-09-28T04:07:43.716Z,1.70
2022-09-28T04:10:13.579Z,1.52
2022-09-28T04:12:42.691Z,1.50
2022-09-28T04:15:12.211Z,1.52
2022-09-28T04:17:41.235Z,1.63
2022-09-28T04:20:22.022Z,1.30
2022-09-28T04:23:10.448Z,1.40
2022-09-28T04:25:40.287Z,1.35
2022-09-28T04:28:28.314Z,1.20
2022-09-28T04:30:57.315Z,1.65
2022-09-28T04:33:26.549Z,1.30
2022-09-28T04:35:56.975Z,1.50
2022-09-28T04:38:41.807Z,1.80
2022-09-28T04:41:15.545Z,1.75
2022-09-28T04:43:44.866Z,1.30
2022-09-28T04:46:14.557Z,1.50
2022-09-28T04:48:52.418Z,1.48
2022-09-28T04:51:42.420Z,1.67
2022-09-28T04:54:11.427Z,1.77
2022-09-28T04:56:41.147Z,2.22
2022-09-28T04:59:12.116Z,2.60
2022-09-28T05:01:41.827Z,1.90
2022-09-28T05:04:31.259Z,2.40
2022-09-28T05:07:20.021Z,2.55
2022-09-28T05:09:48.990Z,1.90
2022-09-28T05:12:17.967Z,1.80
2022-09-28T05:14:46.906Z,1.98
2022-09-28T05:17:16.474Z,1.80
2022-09-28T05:19:48.349Z,1.40
2022-09-28T05:22:18.855Z,2.20
2022-09-28T05:24:49.113Z,2.13
2022-09-28T05:27:18.263Z,2.03
2022-09-28T05:30:00.601Z,2.85
2022-09-28T05:32:32.645Z,1.85
2022-09-28T05:35:13.748Z,1.90
2022-09-28T05:37:49.354Z,1.98
2022-09-28T05:40:18.777Z,1.88
2022-09-28T05:42:48.033Z,1.55
2022-09-28T05:45:17.124Z,2.17
2022-09-28T05:47:47.390Z,1.70
2022-09-28T05:50:20.517Z,1.60
2022-09-28T05:53:00.283Z,1.65
2022-09-28T05:55:29.952Z,1.60
2022-09-28T05:58:00.529Z,1.70
2022-09-28T06:00:30.583Z,1.30
2022-09-28T06:03:05.482Z,1.60
2022-09-28T06:05:39.493Z,1.70
2022-09-28T06:08:11.673Z,1.50
2022-09-28T06:10:45.367Z,2.00
2022-09-28T06:13:15.444Z,1.77
2022-09-28T06:15:46.299Z,2.03
2022-09-28T06:18:16.413Z,1.90
2022-09-28T06:21:07.017Z,1.90
2022-09-28T06:23:41.048Z,2.33
2022-09-28T06:26:12.063Z,2.30
2022-09-28T06:28:41.776Z,1.80
2022-09-28T06:31:11.361Z,1.73
2022-09-28T06:33:49.372Z,2.17
2022-09-28T06:36:20.901Z,1.70
2022-09-28T06:38:52.724Z,1.80
2022-09-28T06:41:22.312Z,1.92
2022-09-28T06:43:52.216Z,2.38
2022-09-28T06:46:40.178Z,1.90
2022-09-28T06:49:14.202Z,1.98
2022-09-28T06:52:15.525Z,2.28
2022-09-28T06:55:04.884Z,2.30
2022-09-28T06:57:45.118Z,3.60
2022-09-28T07:00:15.932Z,3.00
2022-09-28T07:02:48.054Z,2.63
2022-09-28T07:05:42.126Z,2.33
2022-09-28T07:08:40.865Z,2.42
2022-09-28T07:11:40.842Z,2.05
2022-09-28T07:14:41.834Z,3.05
2022-09-28T07:17:13.966Z,2.60
2022-09-28T07:19:45.257Z,3.33
2022-09-28T07:22:18.618Z,2.60
2022-09-28T07:24:49.201Z,2.55
2022-09-28T07:27:39.532Z,3.20
2022-09-28T07:30:38.784Z,4.00
2022-09-28T07:33:17.178Z,2.30
2022-09-28T07:35:56.383Z,2.58
2022-09-28T07:38:30.361Z,2.67
2022-09-28T07:41:17.000Z,3.53
2022-09-28T07:43:52.411Z,3.67
2022-09-28T07:46:22.362Z,2.83
2022-09-28T07:49:01.617Z,2.90
2022-09-28T07:51:51.457Z,3.05
2022-09-28T07:54:52.130Z,2.90
2022-09-28T07:57:44.429Z,3.00
2022-09-28T08:00:34.294Z,3.20
2022-09-28T08:03:04.678Z,3.00
2022-09-28T08:05:36.933Z,3.63
2022-09-28T08:08:06.310Z,3.75
2022-09-28T08:10:47.243Z,3.55
2022-09-28T08:13:45.699Z,2.70
2022-09-28T08:16:32.453Z,2.67
2022-09-28T08:19:18.438Z,3.20
2022-09-28T08:21:48.438Z,2.95
2022-09-28T08:24:22.579Z,2.67
2022-09-28T08:27:00.682Z,2.70
2022-09-28T08:29:36.581Z,3.45
2022-09-28T08:32:37.742Z,3.60
2022-09-28T08:35:28.942Z,3.10
2022-09-28T08:38:15.228Z,3.00
2022-09-28T08:41:13.824Z,2.95
2022-09-28T08:44:24.022Z,2.90
2022-09-28T08:47:44.851Z,2.75
2022-09-28T08:50:37.927Z,3.58
2022-09-28T08:53:35.300Z,3.00
2022-09-28T08:56:21.598Z,3.40
2022-09-28T08:59:00.163Z,2.97
2022-09-28T09:01:39.442Z,3.70
2022-09-28T09:04:15.311Z,2.85
2022-09-28T09:07:22.518Z,3.08
2022-09-28T09:10:36.422Z,3.15
2022-09-28T09:13:23.771Z,3.00
2022-09-28T09:15:59.353Z,3.53
2022-09-28T09:18:55.670Z,3.00
2022-09-28T09:21:44.122Z,2.85
2022-09-28T09:24:27.240Z,2.67
2022-09-28T09:27:07.194Z,2.65
2022-09-28T09:30:04.553Z,2.35
2022-09-28T09:33:15.807Z,2.78
2022-09-28T09:36:19.644Z,2.55
2022-09-28T09:39:37.117Z,2.50
2022-09-28T09:42:41.732Z,3.42
2022-09-28T09:46:01.484Z,2.80
2022-09-28T09:48:55.936Z,2.53
2022-09-28T09:51:35.420Z,2.85
2022-09-28T09:54:17.295Z,2.97
2022-09-28T09:56:55.070Z,2.78
2022-09-28T09:59:49.429Z,2.85
2022-09-28T10:02:30.209Z,3.30
2022-09-28T10:05:27.751Z,3.30
2022-09-28T10:08:04.772Z,2.60
2022-09-28T10:10:37.408Z,2.65
2022-09-28T10:13:14.084Z,4.00
2022-09-28T10:15:47.706Z,2.65
2022-09-28T10:18:39.112Z,3.15
2022-09-28T10:21:27.231Z,3.33
2022-09-28T10:24:04.654Z,3.05
2022-09-28T10:26:38.488Z,3.13
2022-09-28T10:29:18.135Z,3.40
2022-09-28T10:31:49.512Z,2.88
2022-09-28T10:34:31.870Z,3.13
2022-09-28T10:37:11.733Z,3.60
2022-09-28T10:39:59.834Z,3.10
2022-09-28T10:42:38.974Z,2.75
2022-09-28T10:45:23.352Z,3.20
2022-09-28T10:47:52.795Z,2.95
2022-09-28T10:50:26.516Z,2.40
2022-09-28T10:53:19.396Z,2.10
2022-09-28T10:56:10.368Z,2.60
2022-09-28T10:58:42.671Z,2.42
2022-09-28T11:01:22.170Z,3.00
2022-09-28T11:03:58.404Z,2.67
2022-09-28T11:06:30.772Z,2.60
2022-09-28T11:09:04.108Z,2.97
2022-09-28T11:11:42.235Z,2.45
2022-09-28T11:14:27.660Z,2.47
2022-09-28T11:17:29.406Z,2.83
2022-09-28T11:20:01.660Z,2.30
2022-09-28T11:22:41.790Z,2.20
2022-09-28T11:25:21.397Z,2.55
2022-09-28T11:28:04.525Z,2.60
2022-09-28T11:30:40.589Z,3.08
2022-09-28T11:33:32.195Z,2.63
2022-09-28T11:36:53.188Z,2.72
2022-09-28T11:39:33.343Z,2.80
2022-09-28T11:42:19.432Z,2.55
2022-09-28T11:44:50.722Z,2.65
2022-09-28T11:47:39.575Z,2.75
2022-09-28T11:50:27.072Z,2.40
2022-09-28T11:53:11.261Z,2.08
2022-09-28T11:55:44.635Z,2.35
2022-09-28T11:58:20.407Z,2.60
2022-09-28T12:00:57.341Z,1.95
2022-09-28T12:03:42.302Z,2.10
2022-09-28T12:06:19.944Z,2.40
2022-09-28T12:08:54.941Z,2.20
2022-09-28T12:11:50.368Z,2.00
2022-09-28T12:14:30.582Z,1.77
2022-09-28T12:17:08.522Z,2.20
2022-09-28T12:19:44.893Z,1.67
2022-09-28T12:22:22.735Z,2.05
2022-09-28T12:24:55.969Z,2.00
2022-09-28T12:27:32.622Z,2.33
2022-09-28T12:30:07.167Z,2.53
2022-09-28T12:32:42.511Z,2.70
2022-09-28T12:35:20.995Z,2.05
2022-09-28T12:38:11.653Z,2.10
2022-09-28T12:40:54.578Z,2.08
2022-09-28T12:43:49.558Z,1.50
2022-09-28T12:46:35.411Z,1.85
2022-09-28T12:52:30.212Z,2.58
2022-09-28T12:55:25.857Z,2.13
2022-09-28T12:58:01.329Z,1.80
2022-09-28T13:00:41.017Z,1.80
2022-09-28T13:03:49.171Z,1.83
2022-09-28T13:06:39.920Z,2.25
2022-09-28T13:09:21.742Z,2.10
2022-09-28T13:12:16.728Z,2.20
2022-09-28T13:15:23.579Z,1.90
2022-09-28T13:18:02.668Z,2.08
2022-09-28T13:21:02.708Z,2.08
2022-09-28T13:23:39.160Z,1.67
2022-09-28T13:26:18.246Z,1.95
2022-09-28T13:28:54.816Z,1.60
2022-09-28T13:31:33.965Z,1.98
2022-09-28T13:34:11.511Z,1.75
2022-09-28T13:36:47.798Z,1.60
2022-09-28T13:39:48.860Z,1.80
2022-09-28T13:42:50.644Z,1.80
2022-09-28T13:45:33.442Z,1.88
2022-09-28T13:48:14.637Z,1.83
2022-09-28T13:51:03.717Z,1.90
2022-09-28T13:53:45.305Z,2.03
2022-09-28T13:56:29.849Z,1.60
2022-09-28T13:59:03.000Z,1.80
2022-09-28T14:01:39.924Z,1.70
2022-09-28T14:04:18.897Z,2.90
2022-09-28T14:06:55.606Z,1.67
2022-09-28T14:09:44.151Z,1.70
2022-09-28T14:12:48.833Z,1.60
2022-09-28T14:15:45.427Z,1.63
2022-09-28T14:18:31.141Z,1.85
2022-09-28T14:21:50.579Z,1.80
2022-09-28T14:24:31.521Z,1.75
2022-09-28T14:27:35.757Z,1.70
2022-09-28T14:30:21.682Z,2.20
2022-09-28T14:32:57.513Z,1.73
2022-09-28T14:35:34.343Z,2.03
2022-09-28T14:38:30.900Z,1.90
2022-09-28T14:41:13.780Z,1.88
2022-09-28T14:44:08.043Z,2.38
2022-09-28T14:46:40.540Z,1.67
2022-09-28T14:49:50.349Z,1.88
2022-09-28T14:52:46.075Z,2.00
2022-09-28T14:55:23.662Z,2.00
2022-09-28T14:57:59.726Z,2.50
2022-09-28T15:00:31.982Z,2.60
2022-09-28T15:03:10.125Z,2.25
2022-09-28T15:05:47.964Z,2.00
2022-09-28T15:08:22.434Z,2.53
2022-09-28T15:10:52.515Z,2.42
2022-09-28T15:13:26.207Z,4.82
2022-09-28T15:15:59.750Z,2.75
2022-09-28T15:19:13.358Z,2.35
2022-09-28T15:21:47.331Z,1.65
2022-09-28T15:24:32.645Z,1.95
2022-09-28T15:27:03.369Z,2.40
2022-09-28T15:29:44.782Z,3.00
2022-09-28T15:32:28.488Z,1.80
2022-09-28T15:34:57.051Z,2.45
2022-09-28T15:37:32.252Z,2.45
2022-09-28T15:40:38.229Z,2.30
2022-09-28T15:43:36.316Z,1.80
2022-09-28T15:46:27.254Z,1.85
2022-09-28T15:49:08.305Z,2.20
2022-09-28T15:51:58.488Z,2.05
2022-09-28T15:54:54.417Z,3.22
2022-09-28T15:57:40.712Z,1.77
2022-09-28T16:00:26.942Z,1.63
2022-09-28T16:03:06.296Z,2.95
2022-09-28T16:05:46.309Z,7.45
2022-09-28T16:08:21.522Z,3.00
2022-09-28T16:11:09.031Z,2.22
2022-09-28T16:13:56.402Z,2.10
2022-09-28T16:16:30.282Z,2.22
2022-09-28T16:19:04.094Z,2.15
2022-09-28T16:21:47.235Z,1.50
2022-09-28T16:24:28.224Z,1.98
2022-09-28T16:27:00.986Z,2.53
2022-09-28T16:29:40.562Z,3.65
2022-09-28T16:32:41.743Z,4.55
2022-09-28T16:35:28.619Z,3.00
2022-09-28T16:38:05.627Z,6.95
2022-09-28T16:40:35.214Z,3.92
2022-09-28T16:43:08.797Z,7.10
2022-09-28T16:45:39.323Z,6.18
2022-09-28T16:48:10.882Z,3.40
2022-09-28T16:50:40.049Z,2.90
2022-09-28T16:53:33.265Z,2.58
2022-09-28T16:56:03.327Z,3.25
2022-09-28T16:58:33.104Z,2.88
2022-09-28T17:01:04.808Z,2.85
2022-09-28T17:03:33.953Z,2.80
2022-09-28T17:06:06.054Z,2.65
2022-09-28T17:08:35.453Z,3.03
2022-09-28T17:11:19.256Z,3.90
2022-09-28T17:13:49.477Z,4.05
2022-09-28T17:16:37.278Z,4.43
2022-09-28T17:19:20.648Z,3.90
2022-09-28T17:21:50.466Z,4.35
2022-09-28T17:24:20.255Z,6.28
2022-09-28T17:26:52.318Z,4.38
2022-09-28T17:29:21.570Z,4.53
2022-09-28T17:31:52.075Z,6.18
2022-09-28T17:34:21.755Z,6.50
2022-09-28T17:36:50.770Z,5.32
2022-09-28T17:39:20.818Z,3.25
2022-09-28T17:41:49.874Z,8.90
2022-09-28T17:44:20.319Z,7.70
2022-09-28T17:46:52.331Z,7.95
2022-09-28T17:49:21.311Z,7.60
2022-09-28T17:51:52.773Z,8.00
2022-09-28T17:54:22.578Z,5.20
2022-09-28T17:56:51.899Z,6.15
2022-09-28T17:59:21.836Z,6.65
2022-09-28T18:01:52.460Z,7.55
2022-09-28T18:04:50.181Z,4.57
2022-09-28T18:07:10.703Z,4.18
2022-09-28T18:09:39.819Z,3.70
2022-09-28T18:12:09.287Z,4.65
2022-09-28T18:14:39.875Z,5.50
2022-09-28T18:17:10.354Z,6.10
2022-09-28T18:19:39.448Z,3.80
2022-09-28T18:22:08.450Z,4.07
2022-09-28T18:24:37.497Z,3.50
2022-09-28T18:27:06.543Z,3.60
2022-09-28T18:29:35.533Z,4.10
2022-09-28T18:32:04.712Z,3.78
2022-09-28T18:34:38.625Z,3.95
2022-09-28T18:37:08.053Z,3.35
2022-09-28T18:39:37.424Z,3.83
2022-09-28T18:42:06.657Z,5.03
2022-09-28T18:44:35.738Z,4.32
2022-09-28T18:47:04.958Z,4.15
2022-09-28T18:49:34.521Z,4.15
2022-09-28T18:52:04.870Z,3.92
2022-09-28T18:54:34.152Z,4.07
2022-09-28T18:57:03.198Z,3.67
2022-09-28T18:59:32.454Z,4.45
2022-09-28T19:02:02.373Z,3.70
2022-09-28T19:04:31.455Z,4.30
2022-09-28T19:07:00.440Z,4.05
2022-09-28T19:09:31.243Z,5.03
2022-09-28T19:12:00.380Z,3.80
2022-09-28T19:14:29.463Z,5.18
2022-09-28T19:16:58.483Z,4.65
2022-09-28T19:19:29.065Z,4.40
2022-09-28T19:21:58.213Z,4.13
2022-09-28T19:24:27.332Z,3.72
2022-09-28T19:26:57.671Z,4.60
2022-09-28T19:29:27.086Z,5.35
2022-09-28T19:31:56.691Z,5.47
2022-09-28T19:34:29.841Z,5.85
2022-09-28T19:37:01.022Z,5.93
2022-09-28T19:39:30.356Z,5.30
2022-09-28T19:42:01.981Z,4.75
2022-09-28T19:44:35.651Z,4.63
2022-09-28T19:47:08.626Z,5.28
2022-09-28T19:49:40.619Z,5.80
2022-09-28T19:52:15.594Z,5.32
2022-09-28T19:54:54.558Z,5.25
2022-09-28T19:57:25.992Z,6.05
2022-09-28T20:00:00.823Z,5.13
2022-09-28T20:02:34.923Z,5.47
2022-09-28T20:05:04.715Z,5.50
2022-09-28T20:07:34.741Z,5.05
2022-09-28T20:10:03.901Z,5.30
2022-09-28T20:12:34.576Z,5.05
2022-09-28T20:15:03.838Z,4.55
2022-09-28T20:17:33.009Z,5.63
2022-09-28T20:20:02.363Z,5.45
2022-09-28T20:22:31.356Z,5.30
2022-09-28T20:25:00.567Z,4.78
2022-09-28T20:27:30.260Z,4.43
2022-09-28T20:30:00.670Z,4.35
2022-09-28T20:32:32.921Z,4.57
2022-09-28T20:35:01.954Z,4.40
2022-09-28T20:37:31.046Z,4.35
2022-09-28T20:40:00.868Z,4.85
2022-09-28T20:42:32.011Z,5.10
2022-09-28T20:45:02.657Z,4.45
2022-09-28T20:47:32.081Z,4.00
2022-09-28T20:50:01.134Z,4.40
2022-09-28T20:52:30.052Z,4.43
2022-09-28T20:54:59.009Z,4.40
2022-09-28T20:57:28.820Z,4.10
2022-09-28T20:59:57.862Z,3.92
2022-09-28T21:02:28.364Z,4.60
2022-09-28T21:04:57.409Z,4.72
2022-09-28T21:07:26.485Z,4.40
2022-09-28T21:09:55.511Z,4.85
2022-09-28T21:12:25.946Z,4.82
2022-09-28T21:14:55.090Z,5.50
2022-09-28T21:17:24.179Z,4.38
2022-09-28T21:19:54.466Z,4.82
2022-09-28T21:22:23.478Z,4.78
2022-09-28T21:24:52.414Z,4.75
2022-09-28T21:27:21.326Z,4.00
2022-09-28T21:29:50.332Z,4.03
2022-09-28T21:32:19.334Z,4.40
2022-09-28T21:34:48.279Z,3.60
2022-09-28T21:37:18.598Z,3.60
2022-09-28T21:39:47.563Z,3.60
2022-09-28T21:42:16.530Z,4.05
2022-09-28T21:44:45.495Z,4.13
2022-09-28T21:47:14.499Z,4.70
2022-09-28T21:49:43.489Z,4.22
2022-09-28T21:52:12.755Z,4.88
2022-09-28T21:54:43.073Z,4.90
2022-09-28T21:57:12.091Z,3.80
2022-09-28T21:59:41.017Z,4.13
2022-09-28T22:02:10.484Z,4.35
2022-09-28T22:04:39.393Z,4.60
2022-09-28T22:07:08.378Z,4.32
2022-09-28T22:09:37.418Z,4.35
2022-09-28T22:12:08.211Z,4.53
2022-09-28T22:14:37.119Z,4.20
2022-09-28T22:17:06.225Z,3.80
2022-09-28T22:19:35.496Z,4.15
2022-09-28T22:22:04.451Z,4.78
2022-09-28T22:24:33.376Z,4.28
2022-09-28T22:27:02.350Z,4.07
2022-09-28T22:29:32.715Z,4.70
2022-09-28T22:32:03.160Z,4.32
2022-09-28T22:34:33.161Z,4.57
2022-09-28T22:37:03.990Z,4.95
2022-09-28T22:39:37.542Z,4.10
2022-09-28T22:42:07.066Z,4.63
2022-09-28T22:44:37.691Z,4.38
2022-09-28T22:47:06.739Z,4.22
2022-09-28T22:49:35.861Z,3.80
2022-09-28T22:52:04.971Z,3.65
2022-09-28T22:54:34.318Z,3.88
2022-09-28T22:57:03.431Z,4.43
2022-09-28T22:59:32.434Z,4.53
2022-09-28T23:02:05.210Z,4.28
2022-09-28T23:04:34.254Z,3.95
2022-09-28T23:07:03.376Z,4.15
2022-09-28T23:09:32.418Z,5.30
2022-09-28T23:12:01.885Z,4.05
2022-09-28T23:14:30.850Z,3.85
2022-09-28T23:17:00.026Z,3.35
2022-09-28T23:19:30.418Z,4.43
2022-09-28T23:21:59.562Z,3.53
2022-09-28T23:24:28.566Z,3.90
2022-09-28T23:26:57.753Z,3.90
2022-09-28T23:29:27.037Z,4.78
2022-09-28T23:31:55.963Z,4.10
2022-09-28T23:34:24.952Z,4.15
2022-09-28T23:36:55.998Z,3.75
2022-09-28T23:39:24.978Z,3.80
2022-09-28T23:41:54.007Z,3.92
2022-09-28T23:44:22.966Z,3.80
2022-09-28T23:47:03.617Z,5.15
2022-09-28T23:49:32.830Z,3.72
2022-09-28T23:52:03.618Z,4.70
2022-09-28T23:54:32.631Z,3.17
2022-09-28T23:57:02.141Z,3.85
2022-09-28T23:59:31.146Z,3.65
